Time;durP1;ratioP1;P1;durP2;ratioP2;P2;SDS_P1;SDS_P2;PMS_P1;PMS_P2;Temp;Humidity;BMP_temperature;BMP_pressure;BME280_temperature;BME280_humidity;BME280_pressure;Samples;Min_cycle;Max_cycle;Signal;HPM_P1;HPM_P2
2022/01/23 00:08:06;;;;;;;0.38;0.25;;;;;;;14.23;60.59;102995.69;21081920;28;20051;-78
2022/01/23 00:18:08;;;;;;;0.82;0.40;;;;;;;14.03;60.75;102978.63;21081256;28;20489;-78
2022/01/23 00:38:30;;;;;;;0.40;0.40;;;;;;;14.15;60.93;102988.00;21061352;28;20123;-78
2022/01/23 00:48:35;;;;;;;0.45;0.40;;;;;;;14.47;60.61;103036.72;21060504;28;20138;-78
2022/01/23 00:58:37;;;;;;;0.90;0.50;;;;;;;14.04;60.88;102954.44;21043784;28;20131;-78
2022/01/23 01:08:41;;;;;;;1.15;0.75;;;;;;;14.58;60.41;103072.03;21058945;28;20056;-78
2022/01/23 01:39:26;;;;;;;0.60;0.40;;;;;;;14.44;60.79;103028.81;21056228;28;20048;-78
2022/01/23 01:49:31;;;;;;;0.75;0.40;;;;;;;14.04;60.45;102965.16;21055845;28;20051;-78
2022/01/23 02:10:05;;;;;;;1.63;0.40;;;;;;;14.71;60.31;103093.88;21072265;28;20071;-78
2022/01/23 02:51:39;;;;;;;0.47;0.40;;;;;;;14.68;60.19;103110.06;21053249;28;20452;-79
2022/01/23 03:02:00;;;;;;;0.57;0.43;;;;;;;14.68;60.47;103114.56;21374493;22;20061;-84
2022/01/23 03:13:25;;;;;;;0.40;0.30;;;;;;;14.52;60.45;103095.53;20808955;28;20125;-82
2022/01/23 03:33:24;;;;;;;0.63;0.40;;;;;;;14.60;60.58;103120.22;20806581;28;20064;-82
2022/01/23 03:43:30;;;;;;;0.75;0.43;;;;;;;14.58;60.04;103119.41;20834211;28;20049;-81
2022/01/23 03:53:38;;;;;;;1.05;0.40;;;;;;;14.36;60.25;103078.22;20816492;28;20608;-82
2022/01/23 04:03:40;;;;;;;0.93;0.50;;;;;;;14.47;60.24;103093.00;20814917;28;20064;-82
2022/01/23 04:13:58;;;;;;;0.60;0.30;;;;;;;14.27;59.88;103054.47;20814900;28;20152;-82
2022/01/23 05:05:08;;;;;;;0.43;0.40;;;;;;;14.72;60.43;103124.25;20745335;28;20499;-82
2022/01/23 05:15:15;;;;;;;0.47;0.40;;;;;;;14.54;60.39;103058.81;20745107;28;20488;-81
2022/01/23 05:25:27;;;;;;;0.40;0.40;;;;;;;15.05;60.25;103127.38;20727769;28;20057;-81
2022/01/23 05:35:30;;;;;;;1.17;0.40;;;;;;;15.25;60.09;103116.75;20742863;28;20064;-81
2022/01/23 05:45:34;;;;;;;0.75;0.30;;;;;;;15.18;59.69;103071.41;20726857;28;20108;-81
2022/01/23 05:55:42;;;;;;;0.30;0.30;;;;;;;15.59;59.16;103129.59;20745026;28;20067;-81
2022/01/23 06:05:51;;;;;;;0.52;0.38;;;;;;;15.65;59.51;103139.22;20791429;28;20168;-81
2022/01/23 06:15:57;;;;;;;0.20;0.20;;;;;;;15.55;59.09;103105.66;20788537;28;20073;-81
2022/01/23 06:26:00;;;;;;;0.30;0.30;;;;;;;15.72;59.28;103135.31;20773561;28;20050;-81
2022/01/23 06:36:05;;;;;;;0.98;0.38;;;;;;;15.77;58.95;103157.47;20787872;28;20415;-81
2022/01/23 06:46:07;;;;;;;1.25;0.30;;;;;;;15.51;59.07;103110.28;20836201;28;20049;-81
2022/01/23 06:56:09;;;;;;;0.85;0.40;;;;;;;15.78;59.11;103145.78;20737706;28;20068;-81
2022/01/23 07:06:12;;;;;;;0.35;0.30;;;;;;;15.84;59.22;103170.63;20785349;28;20045;-81
2022/01/23 07:16:52;;;;;;;0.90;0.30;;;;;;;15.85;59.26;103183.13;20806998;28;20045;-81
2022/01/23 07:27:01;;;;;;;0.52;0.45;;;;;;;15.48;59.01;103137.25;20801356;28;20059;-81
2022/01/23 07:37:04;;;;;;;0.30;0.30;;;;;;;15.76;59.07;103193.31;20735124;28;20046;-81
2022/01/23 07:47:13;;;;;;;0.50;0.30;;;;;;;15.57;59.13;103157.47;20720452;28;20081;-81
2022/01/23 07:57:45;;;;;;;0.20;0.20;;;;;;;15.90;59.06;103219.63;20720058;28;20427;-85
2022/01/23 08:08:13;;;;;;;0.43;0.20;;;;;;;15.92;58.89;103227.63;20714316;28;20132;-84
2022/01/23 08:18:41;;;;;;;0.45;0.20;;;;;;;15.90;59.08;103245.59;20808525;28;20052;-85
2022/01/23 08:28:43;;;;;;;0.30;0.30;;;;;;;15.48;58.77;103170.34;20796570;28;20045;-81
2022/01/23 08:38:45;;;;;;;0.20;0.20;;;;;;;15.86;59.38;103238.59;20811934;28;20057;-84
2022/01/23 08:48:47;;;;;;;0.30;0.20;;;;;;;15.88;59.22;103268.97;20762963;28;20132;-84
2022/01/23 08:58:49;;;;;;;0.15;0.15;;;;;;;15.48;59.22;103182.88;20794091;28;20518;-84
2022/01/23 09:08:53;;;;;;;0.75;0.22;;;;;;;15.62;59.24;103210.03;20732021;28;20125;-84
2022/01/23 09:18:55;;;;;;;0.20;0.20;;;;;;;15.93;59.26;103253.56;20808775;28;20475;-84
2022/01/23 09:29:00;;;;;;;0.20;0.20;;;;;;;15.92;59.32;103254.50;20791539;28;20063;-84
2022/01/23 09:39:04;;;;;;;0.47;0.30;;;;;;;15.85;59.27;103242.22;20807208;28;20159;-84
2022/01/23 09:49:29;;;;;;;0.10;0.10;;;;;;;15.65;59.51;103215.25;20698487;28;20045;-84
2022/01/23 09:59:31;;;;;;;0.22;0.20;;;;;;;15.84;59.57;103295.06;20709055;28;20551;-84
2022/01/23 10:09:34;;;;;;;0.20;0.20;;;;;;;15.59;59.22;103226.25;20692977;28;20038;-84
2022/01/23 10:19:35;;;;;;;0.20;0.20;;;;;;;15.96;59.10;103272.22;20724142;28;20136;-84
2022/01/23 10:29:43;;;;;;;0.28;0.22;;;;;;;15.59;59.36;103206.59;20724274;28;20060;-83
2022/01/23 10:39:47;;;;;;;0.20;0.20;;;;;;;15.59;59.16;103203.94;20708841;28;20048;-85
2022/01/23 10:49:54;;;;;;;0.20;0.20;;;;;;;15.72;59.05;103215.88;20723059;28;20038;-85
2022/01/23 10:59:56;;;;;;;0.20;0.20;;;;;;;15.93;59.48;103256.25;20723568;28;20109;-84
2022/01/23 11:10:01;;;;;;;0.20;0.20;;;;;;;15.78;59.66;103209.38;20722559;28;20104;-85
2022/01/23 11:20:04;;;;;;;0.20;0.20;;;;;;;16.11;59.44;103259.06;20706616;28;20137;-78
2022/01/23 11:30:11;;;;;;;0.43;0.20;;;;;;;16.03;59.78;103252.22;20748248;28;20046;-79
2022/01/23 11:40:39;;;;;;;0.20;0.20;;;;;;;15.97;59.89;103241.75;20752767;28;20447;-81
2022/01/23 12:00:45;;;;;;;0.40;0.20;;;;;;;15.93;59.93;103210.56;20734865;28;20053;-84
2022/01/23 12:11:56;;;;;;;0.38;0.10;;;;;;;16.12;60.20;103256.28;20717600;28;20050;-84
2022/01/23 12:21:45;;;;;;;0.30;0.10;;;;;;;15.21;59.94;103102.59;20746533;28;20058;-84
2022/01/23 12:31:47;;;;;;;0.10;0.10;;;;;;;15.72;60.08;103166.69;20749611;28;20053;-84
2022/01/23 12:42:00;;;;;;;0.22;0.10;;;;;;;15.88;60.15;103196.44;20731306;28;20045;-81
2022/01/23 12:52:08;;;;;;;0.20;0.20;;;;;;;16.20;60.57;103227.28;20715144;28;20054;-81
2022/01/23 13:02:14;;;;;;;0.10;0.10;;;;;;;15.81;60.48;103151.03;20746270;28;20148;-82
2022/01/23 13:33:08;;;;;;;0.28;0.10;;;;;;;15.46;60.94;103075.56;20730449;28;20152;-81
2022/01/23 14:03:43;;;;;;;0.20;0.20;;;;;;;16.34;61.28;103207.84;20694802;28;20053;-82
2022/01/23 14:13:45;;;;;;;0.25;0.20;;;;;;;16.01;61.04;103145.75;20742407;28;20327;-82
2022/01/23 14:23:54;;;;;;;0.17;0.17;;;;;;;16.36;61.15;103205.97;20742017;28;20148;-81
2022/01/23 14:33:59;;;;;;;0.10;0.10;;;;;;;16.19;60.90;103178.97;20724043;28;20472;-82
2022/01/23 14:44:16;;;;;;;0.20;0.20;;;;;;;16.38;61.00;103213.97;20724537;28;20085;-82
2022/01/23 14:54:19;;;;;;;0.25;0.13;;;;;;;16.33;61.11;103213.28;20740735;28;20053;-82
2022/01/23 15:04:23;;;;;;;0.47;0.30;;;;;;;16.05;61.01;103167.03;20732657;28;20065;-81
2022/01/23 15:14:25;;;;;;;0.30;0.20;;;;;;;16.29;60.90;103207.16;20739960;28;20050;-82
2022/01/23 15:24:28;;;;;;;0.13;0.13;;;;;;;16.40;61.02;103228.19;20737427;28;20088;-82
2022/01/23 15:34:30;;;;;;;0.10;0.10;;;;;;;16.32;61.00;103225.84;20737292;28;20081;-82
2022/01/23 15:44:32;;;;;;;0.20;0.20;;;;;;;16.41;60.95;103239.84;20736838;28;20132;-82
2022/01/23 15:54:34;;;;;;;0.10;0.10;;;;;;;16.35;60.91;103215.00;20735569;28;20495;-83
2022/01/23 16:04:38;;;;;;;1.05;0.10;;;;;;;16.36;60.50;103218.53;20751812;28;20508;-83
2022/01/23 16:14:40;;;;;;;0.15;0.15;;;;;;;16.01;61.15;103156.47;20716650;28;20054;-86
2022/01/23 16:24:42;;;;;;;0.20;0.20;;;;;;;16.28;61.12;103218.88;20732635;28;20069;-84
2022/01/23 16:34:44;;;;;;;0.20;0.20;;;;;;;15.36;60.63;103075.13;20715744;28;20089;-84
2022/01/23 16:44:46;;;;;;;0.28;0.20;;;;;;;15.83;60.82;103174.25;20731469;28;20428;-84
2022/01/23 16:54:49;;;;;;;0.10;0.10;;;;;;;15.75;60.98;103166.56;20714573;28;20403;-84
2022/01/23 17:04:55;;;;;;;0.22;0.22;;;;;;;15.23;61.18;103111.44;20745574;28;20054;-81
2022/01/23 17:14:58;;;;;;;0.15;0.15;;;;;;;15.66;60.97;103194.66;20728807;28;20046;-84
2022/01/23 17:25:21;;;;;;;0.20;0.20;;;;;;;15.95;61.38;103232.88;20711329;28;20045;-83
2022/01/23 17:35:24;;;;;;;1.00;0.20;;;;;;;15.27;61.35;103120.25;20714283;28;20069;-81
2022/01/23 17:45:32;;;;;;;0.10;0.10;;;;;;;15.22;61.15;103131.16;20710842;28;20061;-81
2022/01/23 17:55:34;;;;;;;0.93;0.20;;;;;;;15.97;61.45;103231.00;20710790;28;20045;-80
2022/01/23 18:05:37;;;;;;;0.40;0.17;;;;;;;15.68;61.00;103176.69;20742958;28;20053;-80
2022/01/23 18:15:40;;;;;;;0.25;0.25;;;;;;;15.50;60.96;103132.69;20742345;28;20046;-80
2022/01/23 18:25:45;;;;;;;0.70;0.35;;;;;;;15.91;60.89;103221.38;20725755;28;20046;-81
2022/01/23 18:35:50;;;;;;;0.20;0.20;;;;;;;15.86;60.69;103217.09;20740005;28;20377;-82
2022/01/23 18:45:53;;;;;;;0.20;0.20;;;;;;;15.68;60.73;103179.34;20707671;28;20060;-82
2022/01/23 18:55:55;;;;;;;0.20;0.20;;;;;;;15.64;60.88;103172.38;20739334;28;20048;-82
2022/01/23 19:06:07;;;;;;;0.30;0.30;;;;;;;15.84;60.72;103202.84;20707302;28;20054;-82
2022/01/23 19:16:09;;;;;;;0.30;0.30;;;;;;;16.08;60.39;103244.81;20723907;28;20046;-82
2022/01/23 19:26:12;;;;;;;0.20;0.20;;;;;;;16.05;60.52;103242.28;20739266;28;20385;-82
2022/01/23 19:36:14;;;;;;;0.20;0.20;;;;;;;15.96;60.33;103229.25;20721780;28;20046;-82
2022/01/23 19:47:08;;;;;;;0.30;0.30;;;;;;;15.89;60.47;103217.00;20722960;28;20054;-82
2022/01/23 19:56:41;;;;;;;0.30;0.30;;;;;;;15.62;60.48;103174.25;20744581;28;20451;-82
2022/01/23 20:06:42;;;;;;;0.40;0.20;;;;;;;15.56;60.30;103159.28;20734299;28;20062;-82
2022/01/23 20:16:45;;;;;;;0.82;0.40;;;;;;;15.46;60.52;103161.47;20751150;28;20046;-81
2022/01/23 20:26:47;;;;;;;0.45;0.20;;;;;;;15.30;60.37;103133.53;20763523;28;20132;-81
2022/01/23 20:36:49;;;;;;;0.25;0.20;;;;;;;15.23;60.67;103133.78;20717372;28;20116;-82
2022/01/23 20:46:51;;;;;;;0.20;0.20;;;;;;;15.59;60.74;103201.25;20715136;28;20073;-81
2022/01/23 20:56:53;;;;;;;0.30;0.30;;;;;;;15.51;60.44;103185.44;20715666;28;20053;-82
2022/01/23 21:06:55;;;;;;;0.20;0.20;;;;;;;15.48;60.77;103188.25;20747472;28;20056;-82
2022/01/23 21:47:58;;;;;;;0.65;0.30;;;;;;;15.16;60.52;103177.94;20729794;28;20057;-82
2022/01/23 21:58:16;;;;;;;0.30;0.30;;;;;;;14.93;60.63;103142.16;20697684;28;20061;-83
2022/01/23 22:08:22;;;;;;;0.25;0.20;;;;;;;15.20;60.87;103184.91;20742383;28;20042;-83
2022/01/23 22:18:25;;;;;;;0.20;0.20;;;;;;;15.11;60.88;103182.59;20725549;28;20046;-83
2022/01/23 22:28:28;;;;;;;0.30;0.30;;;;;;;14.35;60.50;103060.41;20708839;28;20565;-84
2022/01/23 22:38:32;;;;;;;0.20;0.20;;;;;;;15.08;60.97;103205.06;20723759;28;20041;-84
2022/01/23 22:48:33;;;;;;;0.20;0.20;;;;;;;15.01;60.62;103203.56;20741015;28;20423;-83
2022/01/23 22:58:35;;;;;;;0.30;0.30;;;;;;;15.04;60.55;103219.53;20740539;28;20057;-83
2022/01/23 23:08:37;;;;;;;0.30;0.30;;;;;;;14.79;60.77;103182.94;20740254;28;20056;-83
2022/01/23 23:18:44;;;;;;;0.45;0.40;;;;;;;14.91;60.83;103208.41;20722755;28;20455;-83
2022/01/23 23:28:47;;;;;;;0.43;0.40;;;;;;;14.60;60.70;103149.69;20721031;28;20105;-83
2022/01/23 23:38:50;;;;;;;0.30;0.30;;;;;;;14.85;60.77;103207.78;20736561;28;20136;-83
2022/01/23 23:49:10;;;;;;;0.47;0.47;;;;;;;14.45;60.79;103140.44;20748189;28;20053;-82
2022/01/23 23:59:14;;;;;;;0.50;0.40;;;;;;;14.75;60.55;103175.06;20737006;28;20492;-83
